Time;durP1;ratioP1;P1;durP2;ratioP2;P2;SDS_P1;SDS_P2;PMS_P1;PMS_P2;Temp;Humidity;BMP_temperature;BMP_pressure;BME280_temperature;BME280_humidity;BME280_pressure;Samples;Min_cycle;Max_cycle;Signal;HPM_P1;HPM_P2
2022/09/10 00:00:33;;;;;;;;;;;;;;;21.47;60.34;99386.09;4397083;32;20039;-90
2022/09/10 00:03:00;;;;;;;;;;;;;;;21.32;60.34;99390.03;4423764;32;20325;-89
2022/09/10 00:05:26;;;;;;;;;;;;;;;21.11;60.33;99382.84;4423803;32;20321;-89
2022/09/10 00:07:51;;;;;;;;;;;;;;;21.21;60.33;99385.56;4410440;32;20061;-89
2022/09/10 00:10:17;;;;;;;;;;;;;;;21.11;60.33;99384.63;4398578;32;20008;-89
2022/09/10 00:12:42;;;;;;;;;;;;;;;21.04;60.33;99376.34;4401041;32;19974;-88
2022/09/10 00:15:08;;;;;;;;;;;;;;;21.04;60.32;99378.97;4414264;32;19986;-90
2022/09/10 00:17:35;;;;;;;;;;;;;;;21.11;60.33;99376.69;4407767;32;20037;-89
2022/09/10 00:20:01;;;;;;;;;;;;;;;21.27;60.34;99382.44;4408473;32;19969;-90
2022/09/10 00:22:26;;;;;;;;;;;;;;;21.11;60.33;99377.53;4409514;32;19993;-90
2022/09/10 00:24:56;;;;;;;;;;;;;;;21.27;60.34;99371.00;4406802;32;20038;-89
2022/09/10 00:27:22;;;;;;;;;;;;;;;21.21;60.33;99369.69;4386328;32;20040;-89
2022/09/10 00:29:49;;;;;;;;;;;;;;;21.13;60.33;99359.72;4409189;32;20005;-89
2022/09/10 00:32:15;;;;;;;;;;;;;;;21.08;60.33;99358.44;4423406;32;19996;-90
2022/09/10 00:34:40;;;;;;;;;;;;;;;21.07;60.33;99360.25;4406817;32;21858;-90
2022/09/10 00:37:05;;;;;;;;;;;;;;;21.10;60.33;99365.28;4408799;32;20274;-90
2022/09/10 00:39:30;;;;;;;;;;;;;;;21.13;60.33;99350.94;4409431;32;19981;-90
2022/09/10 00:41:57;;;;;;;;;;;;;;;21.17;60.32;99354.19;4396817;32;20000;-90
2022/09/10 00:44:40;;;;;;;;;;;;;;;21.07;60.32;99357.59;4396948;32;20044;-91
2022/09/10 00:47:21;;;;;;;;;;;;;;;21.12;60.33;99360.69;4423667;32;20342;-91
2022/09/10 00:50:07;;;;;;;;;;;;;;;20.76;60.30;99353.91;4409414;32;20035;-90
2022/09/10 00:52:32;;;;;;;;;;;;;;;20.78;60.30;99359.09;4398639;32;19981;-90
2022/09/10 00:54:58;;;;;;;;;;;;;;;20.63;60.31;99355.88;4412735;32;20101;-89
2022/09/10 00:57:23;;;;;;;;;;;;;;;20.79;60.31;99353.66;4396903;32;20241;-89
2022/09/10 00:59:50;;;;;;;;;;;;;;;20.77;60.31;99342.38;4409652;32;20001;-88
2022/09/10 01:02:15;;;;;;;;;;;;;;;20.70;60.31;99343.84;4383517;32;831730;-89
2022/09/10 01:04:41;;;;;;;;;;;;;;;20.84;60.31;99346.22;4423517;32;20051;-89
2022/09/10 01:07:06;;;;;;;;;;;;;;;20.73;60.31;99348.03;4409713;32;19986;-92
2022/09/10 01:09:31;;;;;;;;;;;;;;;20.71;60.31;99344.69;4410201;32;20000;-92
2022/09/10 01:12:03;;;;;;;;;;;;;;;20.67;60.30;99337.97;4397339;32;19977;-92
2022/09/10 01:14:36;;;;;;;;;;;;;;;20.83;60.31;99341.91;4410206;32;19994;-93
2022/09/10 01:17:11;;;;;;;;;;;;;;;20.76;60.31;99339.84;4397456;32;20051;-92
2022/09/10 01:19:55;;;;;;;;;;;;;;;20.80;60.31;99339.47;4397273;32;20802;-92
2022/09/10 01:22:26;;;;;;;;;;;;;;;20.71;60.31;99334.94;4409792;32;19993;-91
2022/09/10 01:24:53;;;;;;;;;;;;;;;20.58;60.30;99331.56;4410097;32;20316;-92
2022/09/10 01:27:28;;;;;;;;;;;;;;;20.62;60.30;99326.91;4409749;32;20268;-92
2022/09/10 01:30:04;;;;;;;;;;;;;;;20.70;60.31;99325.31;4423184;32;20774;-92
2022/09/10 01:32:39;;;;;;;;;;;;;;;20.51;60.29;99318.00;4397985;32;19966;-92
2022/09/10 01:35:07;;;;;;;;;;;;;;;20.62;60.29;99308.41;4395026;32;19962;-93
2022/09/10 01:37:32;;;;;;;;;;;;;;;20.49;60.30;99301.44;4398340;32;20002;-92
2022/09/10 01:39:57;;;;;;;;;;;;;;;20.50;60.29;99292.53;4398637;32;20049;-93
2022/09/10 01:42:24;;;;;;;;;;;;;;;20.43;60.29;99287.88;4399386;32;19986;-92
2022/09/10 01:44:49;;;;;;;;;;;;;;;20.48;60.30;99294.47;4400393;32;20063;-93
2022/09/10 01:47:34;;;;;;;;;;;;;;;20.41;60.29;99292.44;4396591;32;19979;-93
2022/09/10 01:50:02;;;;;;;;;;;;;;;20.28;60.28;99283.78;4431495;32;20005;-93
2022/09/10 01:52:44;;;;;;;;;;;;;;;20.26;60.28;99290.97;4412569;32;20016;-92
2022/09/10 01:55:22;;;;;;;;;;;;;;;20.39;60.28;99303.12;4409958;32;20278;-93
2022/09/10 01:57:54;;;;;;;;;;;;;;;20.31;60.28;99302.88;4409499;32;20667;-92
2022/09/10 02:00:21;;;;;;;;;;;;;;;20.18;60.28;99287.16;4406780;32;19982;-92
2022/09/10 02:02:46;;;;;;;;;;;;;;;20.03;60.27;99277.78;4396914;32;20000;-91
2022/09/10 02:05:15;;;;;;;;;;;;;;;20.11;60.28;99259.53;4409089;32;20351;-91
2022/09/10 02:07:40;;;;;;;;;;;;;;;20.13;60.28;99260.25;4409790;32;20271;-92
2022/09/10 02:10:06;;;;;;;;;;;;;;;20.03;60.27;99274.28;4396492;32;20031;-91
2022/09/10 02:12:32;;;;;;;;;;;;;;;19.86;60.27;99276.44;4396529;32;19982;-92
2022/09/10 02:14:57;;;;;;;;;;;;;;;19.93;60.25;99282.94;4396706;32;20330;-91
2022/09/10 02:17:24;;;;;;;;;;;;;;;19.93;60.27;99285.59;4409315;32;20338;-92
2022/09/10 02:19:58;;;;;;;;;;;;;;;19.79;60.26;99283.16;4396576;32;19974;-91
2022/09/10 02:22:24;;;;;;;;;;;;;;;19.79;60.26;99288.44;4397053;32;20012;-92
2022/09/10 02:24:49;;;;;;;;;;;;;;;19.64;60.25;99287.00;4410327;32;19982;-93
2022/09/10 02:27:14;;;;;;;;;;;;;;;19.47;60.25;99287.41;4397276;32;20263;-92
2022/09/10 02:29:40;;;;;;;;;;;;;;;19.38;60.23;99285.44;4396785;32;19981;-93
2022/09/10 02:32:05;;;;;;;;;;;;;;;19.40;60.24;99281.78;4397037;32;20290;-92
2022/09/10 02:34:31;;;;;;;;;;;;;;;19.35;60.23;99280.41;4391255;32;20002;-91
2022/09/10 02:36:56;;;;;;;;;;;;;;;19.37;60.23;99270.56;4408803;32;19978;-92
2022/09/10 02:39:22;;;;;;;;;;;;;;;19.12;60.22;99277.69;4410524;32;20000;-90
2022/09/10 02:41:47;;;;;;;;;;;;;;;19.21;60.22;99271.75;4410475;32;19994;-90
2022/09/10 02:44:18;;;;;;;;;;;;;;;19.18;60.23;99271.16;4410446;32;20005;-91
2022/09/10 02:46:43;;;;;;;;;;;;;;;19.27;60.24;99276.56;4410297;32;19990;-91
2022/09/10 02:49:11;;;;;;;;;;;;;;;19.11;60.22;99276.00;4410490;32;19986;-91
2022/09/10 02:51:53;;;;;;;;;;;;;;;19.19;60.23;99276.31;4398170;32;19950;-92
2022/09/10 02:54:21;;;;;;;;;;;;;;;19.22;60.23;99273.44;4411654;32;20002;-89
2022/09/10 02:56:48;;;;;;;;;;;;;;;19.31;60.23;99280.66;4411225;32;19998;-93
2022/09/10 02:59:14;;;;;;;;;;;;;;;19.24;60.22;99281.22;4397725;32;20001;-94
2022/09/10 03:01:42;;;;;;;;;;;;;;;18.98;60.21;99276.09;4399782;32;20005;-93
2022/09/10 03:04:07;;;;;;;;;;;;;;;18.94;60.22;99273.81;4399248;32;20353;-92
2022/09/10 03:06:33;;;;;;;;;;;;;;;18.96;60.22;99278.00;4399072;32;20001;-92
2022/09/10 03:08:58;;;;;;;;;;;;;;;19.06;60.22;99279.97;4411361;32;19985;-91
2022/09/10 03:11:24;;;;;;;;;;;;;;;19.15;60.22;99277.47;4411931;32;20224;-91
2022/09/10 03:13:49;;;;;;;;;;;;;;;19.09;60.22;99275.28;4399168;32;20005;-92
2022/09/10 03:16:15;;;;;;;;;;;;;;;19.16;60.23;99276.50;4400176;32;19990;-91
2022/09/10 03:18:40;;;;;;;;;;;;;;;19.16;60.23;99270.37;4401446;32;20018;-92
2022/09/10 03:21:08;;;;;;;;;;;;;;;19.20;60.23;99282.41;4423465;32;20007;-92
2022/09/10 03:23:34;;;;;;;;;;;;;;;19.23;60.22;99280.38;4415956;32;19994;-93
2022/09/10 03:25:59;;;;;;;;;;;;;;;19.17;60.22;99270.31;4396348;32;20347;-93
2022/09/10 03:28:31;;;;;;;;;;;;;;;19.19;60.23;99275.47;4412020;32;19993;-94
2022/09/10 03:31:17;;;;;;;;;;;;;;;19.12;60.22;99272.41;4387314;32;20008;-94
2022/09/10 03:33:45;;;;;;;;;;;;;;;19.24;60.23;99274.16;4408382;32;20010;-94
2022/09/10 03:36:14;;;;;;;;;;;;;;;19.11;60.22;99269.91;4410065;32;20057;-93
2022/09/10 03:38:50;;;;;;;;;;;;;;;18.97;60.21;99271.78;4412071;32;20000;-93
2022/09/10 03:41:16;;;;;;;;;;;;;;;19.04;60.22;99269.53;4399676;32;20667;-93
2022/09/10 03:43:54;;;;;;;;;;;;;;;;;;;;;
2022/09/10 03:46:40;;;;;;;;;;;;;;;18.95;60.21;99268.41;4425168;32;35266;-95
2022/09/10 03:52:21;;;;;;;;;;;;;;;;;;;;;
2022/09/10 03:57:58;;;;;;;;;;;;;;;19.05;60.21;99270.37;4432552;32;20032;-94
2022/09/10 04:00:35;;;;;;;;;;;;;;;18.96;60.22;99272.75;4426605;32;20038;-91
2022/09/10 04:03:01;;;;;;;;;;;;;;;18.88;60.21;99272.44;4424902;32;19990;-91
2022/09/10 04:05:27;;;;;;;;;;;;;;;18.85;60.21;99269.19;4401628;32;20005;-91
2022/09/10 04:07:53;;;;;;;;;;;;;;;18.99;60.21;99277.78;4425514;32;19982;-90
2022/09/10 04:10:20;;;;;;;;;;;;;;;18.98;60.21;99278.75;4425339;32;20702;-92
2022/09/10 04:12:45;;;;;;;;;;;;;;;19.00;60.21;99268.91;4425702;32;19982;-92
2022/09/10 04:15:13;;;;;;;;;;;;;;;18.98;60.21;99285.81;4402074;32;19993;-93
2022/09/10 04:17:38;;;;;;;;;;;;;;;18.99;60.21;99283.06;4413216;32;20004;-91
2022/09/10 04:20:04;;;;;;;;;;;;;;;18.90;60.21;99294.25;4402709;32;24075;-90
2022/09/10 04:22:29;;;;;;;;;;;;;;;18.75;60.20;99289.28;4411167;32;19996;-89
2022/09/10 04:24:54;;;;;;;;;;;;;;;18.75;60.20;99284.84;4425179;32;19998;-90
2022/09/10 04:27:21;;;;;;;;;;;;;;;18.78;60.21;99289.06;4424620;32;20322;-88
2022/09/10 04:29:46;;;;;;;;;;;;;;;18.64;60.20;99290.91;4425116;32;20475;-89
2022/09/10 04:32:11;;;;;;;;;;;;;;;18.72;60.20;99297.44;4424643;32;20001;-90
2022/09/10 04:34:36;;;;;;;;;;;;;;;18.64;60.20;99300.59;4398123;32;20100;-90
2022/09/10 04:37:02;;;;;;;;;;;;;;;18.72;60.20;99305.34;4400926;32;20009;-91
2022/09/10 04:39:27;;;;;;;;;;;;;;;18.78;60.21;99299.63;4409845;32;19978;-90
2022/09/10 04:41:52;;;;;;;;;;;;;;;18.73;60.20;99288.56;4409846;32;19984;-90
2022/09/10 04:44:18;;;;;;;;;;;;;;;18.83;60.21;99290.41;4410365;32;20349;-91
2022/09/10 04:46:44;;;;;;;;;;;;;;;18.81;60.20;99292.31;4410802;32;19982;-91
2022/09/10 04:49:09;;;;;;;;;;;;;;;18.65;60.20;99292.56;4412409;32;19990;-91
2022/09/10 04:51:35;;;;;;;;;;;;;;;18.57;60.19;99294.91;4411118;32;20270;-90
2022/09/10 04:54:00;;;;;;;;;;;;;;;18.72;60.20;99282.44;4424223;32;20001;-90
2022/09/10 04:56:25;;;;;;;;;;;;;;;18.71;60.20;99280.78;4412623;32;20032;-90
2022/09/10 04:58:51;;;;;;;;;;;;;;;18.70;60.21;99277.28;4423569;32;20000;-90
2022/09/10 05:01:16;;;;;;;;;;;;;;;18.78;60.20;99284.63;4408901;32;20302;-90
2022/09/10 05:03:41;;;;;;;;;;;;;;;18.66;60.19;99285.50;4396105;32;20029;-89
2022/09/10 05:06:06;;;;;;;;;;;;;;;18.77;60.20;99282.09;4406895;32;20066;-90
2022/09/10 05:08:32;;;;;;;;;;;;;;;18.89;60.21;99279.41;4405818;32;20265;-89
2022/09/10 05:10:57;;;;;;;;;;;;;;;18.83;60.20;99279.84;4403986;32;19994;-88
2022/09/10 05:13:23;;;;;;;;;;;;;;;18.99;60.21;99282.22;4392573;32;19998;-90
2022/09/10 05:15:48;;;;;;;;;;;;;;;18.94;60.22;99284.34;4410642;32;20040;-89
2022/09/10 05:18:15;;;;;;;;;;;;;;;19.16;60.23;99278.31;4423311;32;20015;-88
2022/09/10 05:20:41;;;;;;;;;;;;;;;19.23;60.22;99285.66;4423335;32;20000;-89
2022/09/10 05:23:07;;;;;;;;;;;;;;;19.13;60.22;99287.28;4409318;32;19993;-89
2022/09/10 05:25:33;;;;;;;;;;;;;;;19.11;60.22;99289.22;4423197;32;20688;-89
2022/09/10 05:27:59;;;;;;;;;;;;;;;19.17;60.22;99296.69;4409112;32;20112;-89
2022/09/10 05:30:25;;;;;;;;;;;;;;;19.32;60.23;99295.53;4423114;32;19974;-89
2022/09/10 05:32:52;;;;;;;;;;;;;;;19.43;60.24;99289.44;4422419;32;20558;-89
2022/09/10 05:35:17;;;;;;;;;;;;;;;19.45;60.23;99286.69;4417238;32;20024;-89
2022/09/10 05:37:42;;;;;;;;;;;;;;;19.54;60.25;99294.78;4404243;32;20267;-89
2022/09/10 05:40:08;;;;;;;;;;;;;;;19.49;60.24;99301.34;4423088;32;19978;-89
2022/09/10 05:42:34;;;;;;;;;;;;;;;19.53;60.24;99297.50;4409149;32;20044;-88
2022/09/10 05:44:59;;;;;;;;;;;;;;;19.53;60.24;99302.78;4408630;32;19994;-89
2022/09/10 05:47:24;;;;;;;;;;;;;;;19.59;60.24;99297.91;4423009;32;20369;-90
2022/09/10 05:49:50;;;;;;;;;;;;;;;19.68;60.25;99304.28;4408537;32;19997;-90
2022/09/10 05:52:15;;;;;;;;;;;;;;;19.62;60.25;99310.00;4408928;32;20005;-90
2022/09/10 05:54:41;;;;;;;;;;;;;;;19.54;60.25;99305.34;4408795;32;21223;-89
2022/09/10 05:57:06;;;;;;;;;;;;;;;19.65;60.25;99296.62;4408441;32;19994;-88
2022/09/10 05:59:33;;;;;;;;;;;;;;;19.50;60.24;99298.56;4408913;32;19984;-89
2022/09/10 06:01:58;;;;;;;;;;;;;;;19.36;60.23;99295.28;4409027;32;20045;-89
2022/09/10 06:04:23;;;;;;;;;;;;;;;19.46;60.23;99296.28;4408865;32;20000;-89
2022/09/10 06:06:49;;;;;;;;;;;;;;;19.65;60.25;99299.25;4422868;32;20055;-90
2022/09/10 06:09:14;;;;;;;;;;;;;;;19.48;60.24;99297.84;4408938;32;19973;-90
2022/09/10 06:11:39;;;;;;;;;;;;;;;19.55;60.24;99300.91;4408746;32;20001;-90
2022/09/10 06:14:04;;;;;;;;;;;;;;;19.55;60.25;99290.34;4422381;32;19990;-90
2022/09/10 06:16:30;;;;;;;;;;;;;;;19.76;60.25;99291.34;4409141;32;20025;-90
2022/09/10 06:18:56;;;;;;;;;;;;;;;19.99;60.26;99289.56;4409753;32;20276;-88
2022/09/10 06:21:23;;;;;;;;;;;;;;;19.77;60.25;99289.53;4424372;32;19985;-89
2022/09/10 06:23:50;;;;;;;;;;;;;;;19.81;60.26;99288.31;4411620;32;19972;-89
2022/09/10 06:26:17;;;;;;;;;;;;;;;19.87;60.26;99283.44;4421065;32;19957;-88
2022/09/10 06:28:43;;;;;;;;;;;;;;;19.86;60.26;99292.28;4411977;32;19958;-88
2022/09/10 06:31:10;;;;;;;;;;;;;;;19.95;60.27;99288.12;4409772;32;19997;-89
2022/09/10 06:33:35;;;;;;;;;;;;;;;19.93;60.25;99284.75;4409098;32;20047;-88
2022/09/10 06:36:02;;;;;;;;;;;;;;;20.00;60.26;99285.09;4397965;32;20271;-89
2022/09/10 06:38:28;;;;;;;;;;;;;;;19.95;60.27;99292.56;4411422;32;20617;-88
2022/09/10 06:40:53;;;;;;;;;;;;;;;19.95;60.26;99300.47;4408549;32;19994;-88
2022/09/10 06:43:22;;;;;;;;;;;;;;;19.73;60.25;99293.38;4408171;32;20043;-89
2022/09/10 06:45:48;;;;;;;;;;;;;;;19.95;60.26;99292.56;4422382;32;19982;-88
2022/09/10 06:48:13;;;;;;;;;;;;;;;19.97;60.26;99291.47;4408099;32;19992;-88
2022/09/10 06:50:38;;;;;;;;;;;;;;;20.24;60.27;99288.47;4422140;32;20010;-88
2022/09/10 06:53:04;;;;;;;;;;;;;;;20.26;60.28;99291.81;4421836;32;19989;-89
2022/09/10 06:55:29;;;;;;;;;;;;;;;20.13;60.27;99297.25;4408161;32;19993;-89
2022/09/10 06:57:54;;;;;;;;;;;;;;;20.31;60.28;99292.28;4408109;32;19970;-88
2022/09/10 07:00:21;;;;;;;;;;;;;;;20.18;60.28;99307.44;4408063;32;20255;-89
2022/09/10 07:02:46;;;;;;;;;;;;;;;20.16;60.28;99310.22;4408481;32;19993;-89
2022/09/10 07:05:12;;;;;;;;;;;;;;;20.00;60.26;99307.06;4421996;32;19985;-88
2022/09/10 07:07:37;;;;;;;;;;;;;;;20.00;60.26;99316.81;4408255;32;19986;-89
2022/09/10 07:10:03;;;;;;;;;;;;;;;19.78;60.25;99320.25;4408219;32;19990;-89
2022/09/10 07:12:28;;;;;;;;;;;;;;;19.83;60.26;99320.75;4408076;32;19996;-89
2022/09/10 07:14:53;;;;;;;;;;;;;;;19.89;60.26;99331.69;4408111;32;19970;-88
2022/09/10 07:17:19;;;;;;;;;;;;;;;19.96;60.27;99333.84;4408834;32;20013;-89
2022/09/10 07:19:45;;;;;;;;;;;;;;;20.02;60.27;99342.16;4422154;32;19986;-88
2022/09/10 07:22:10;;;;;;;;;;;;;;;20.14;60.27;99341.22;4408722;32;20249;-88
2022/09/10 07:24:35;;;;;;;;;;;;;;;20.12;60.27;99340.50;4413038;32;19978;-88
2022/09/10 07:27:01;;;;;;;;;;;;;;;20.15;60.27;99334.97;4424142;32;19970;-89
2022/09/10 07:29:28;;;;;;;;;;;;;;;20.10;60.27;99338.91;4411106;32;20329;-89
2022/09/10 07:31:53;;;;;;;;;;;;;;;20.10;60.27;99336.25;4410994;32;19970;-88
2022/09/10 07:34:19;;;;;;;;;;;;;;;20.31;60.28;99339.88;4424271;32;25147;-89
2022/09/10 07:36:44;;;;;;;;;;;;;;;20.40;60.29;99336.56;4413124;32;20330;-88
2022/09/10 07:39:09;;;;;;;;;;;;;;;20.43;60.30;99343.41;4410053;32;20271;-88
2022/09/10 07:41:35;;;;;;;;;;;;;;;20.54;60.28;99354.78;4410008;32;20013;-89
2022/09/10 07:44:00;;;;;;;;;;;;;;;20.59;60.30;99350.97;4424312;32;19970;-89
2022/09/10 07:46:27;;;;;;;;;;;;;;;20.70;60.31;99354.41;4410147;32;20307;-88
2022/09/10 07:48:53;;;;;;;;;;;;;;;20.54;60.29;99364.53;4410606;32;20414;-88
2022/09/10 07:51:18;;;;;;;;;;;;;;;20.64;60.30;99354.91;4410761;32;19990;-88
2022/09/10 07:53:44;;;;;;;;;;;;;;;20.72;60.31;99359.59;4425210;32;19974;-88
2022/09/10 07:56:10;;;;;;;;;;;;;;;20.91;60.31;99359.78;4412043;32;20040;-88
2022/09/10 07:58:37;;;;;;;;;;;;;;;20.96;60.32;99354.13;4422620;32;19997;-90
2022/09/10 08:01:05;;;;;;;;;;;;;;;20.94;60.32;99356.88;4413534;32;20327;-88
2022/09/10 08:03:30;;;;;;;;;;;;;;;20.90;60.31;99355.47;4410096;32;19996;-88
2022/09/10 08:05:59;;;;;;;;;;;;;;;21.14;60.32;99356.13;4410016;32;19974;-88
2022/09/10 08:08:27;;;;;;;;;;;;;;;21.39;60.34;99354.97;4398823;32;19974;-88
2022/09/10 08:10:52;;;;;;;;;;;;;;;21.57;60.35;99349.94;4413514;32;20053;-88
2022/09/10 08:13:18;;;;;;;;;;;;;;;21.53;60.34;99361.78;4409676;32;20250;-88
2022/09/10 08:15:44;;;;;;;;;;;;;;;21.86;60.36;99357.25;4409809;32;19989;-88
2022/09/10 08:18:14;;;;;;;;;;;;;;;21.87;60.37;99357.12;4409566;32;20326;-88
2022/09/10 08:20:40;;;;;;;;;;;;;;;22.00;60.37;99365.72;4409707;32;20331;-88
2022/09/10 08:23:05;;;;;;;;;;;;;;;21.97;60.37;99360.66;4409725;32;20012;-89
2022/09/10 08:25:32;;;;;;;;;;;;;;;21.87;60.36;99361.56;4408673;32;20311;-88
2022/09/10 08:27:57;;;;;;;;;;;;;;;21.84;60.36;99361.84;4387484;32;19998;-88
2022/09/10 08:30:22;;;;;;;;;;;;;;;22.10;60.38;99359.66;4409607;32;20021;-88
2022/09/10 08:32:48;;;;;;;;;;;;;;;22.35;60.39;99352.09;4409467;32;20017;-88
2022/09/10 08:35:13;;;;;;;;;;;;;;;22.34;60.39;99360.19;4402997;32;19994;-88
2022/09/10 08:37:38;;;;;;;;;;;;;;;22.28;60.39;99361.56;4404445;32;20075;-88
2022/09/10 08:40:04;;;;;;;;;;;;;;;22.15;60.38;99360.94;4409270;32;19981;-89
2022/09/10 08:42:31;;;;;;;;;;;;;;;22.05;60.37;99373.31;4409708;32;19978;-88
2022/09/10 08:45:03;;;;;;;;;;;;;;;21.98;60.37;99366.78;4409701;32;20444;-88
2022/09/10 08:47:41;;;;;;;;;;;;;;;22.03;60.37;99362.81;4410095;32;19997;-88
2022/09/10 08:50:25;;;;;;;;;;;;;;;21.84;60.36;99364.50;4423305;32;20034;-88
2022/09/10 08:53:00;;;;;;;;;;;;;;;22.03;60.38;99361.97;4409352;32;20455;-87
2022/09/10 08:55:30;;;;;;;;;;;;;;;21.97;60.37;99352.69;4409189;32;20353;-88
2022/09/10 08:57:55;;;;;;;;;;;;;;;22.05;60.37;99365.34;4409379;32;19994;-88
2022/09/10 09:00:22;;;;;;;;;;;;;;;22.23;60.38;99363.75;4423419;32;20331;-88
2022/09/10 09:03:03;;;;;;;;;;;;;;;22.43;60.39;99359.38;4409425;32;19970;-88
2022/09/10 09:05:28;;;;;;;;;;;;;;;22.51;60.40;99364.03;4409505;32;20536;-88
2022/09/10 09:07:54;;;;;;;;;;;;;;;22.83;60.41;99362.06;4409637;32;20025;-88
2022/09/10 09:10:25;;;;;;;;;;;;;;;22.74;60.42;99370.81;4423483;32;20001;-87
2022/09/10 09:12:53;;;;;;;;;;;;;;;22.77;60.41;99361.72;4407114;32;20315;-87
2022/09/10 09:15:20;;;;;;;;;;;;;;;22.71;60.40;99365.75;4407063;32;20002;-88
2022/09/10 09:17:48;;;;;;;;;;;;;;;22.98;60.43;99364.31;4407434;32;20049;-89
2022/09/10 09:20:15;;;;;;;;;;;;;;;22.96;60.42;99372.44;4408523;32;19982;-89
2022/09/10 09:22:40;;;;;;;;;;;;;;;23.09;60.42;99361.53;4407749;32;20053;-88
2022/09/10 09:25:12;;;;;;;;;;;;;;;23.30;60.44;99366.72;4409203;32;20013;-89
2022/09/10 09:27:37;;;;;;;;;;;;;;;23.21;60.44;99366.59;4408888;32;20013;-90
2022/09/10 09:30:04;;;;;;;;;;;;;;;23.49;60.45;99370.22;4418491;32;19982;-88
2022/09/10 09:32:30;;;;;;;;;;;;;;;23.64;60.46;99369.81;4410742;32;20370;-87
2022/09/10 09:34:55;;;;;;;;;;;;;;;23.76;60.46;99360.72;4408511;32;19995;-87
2022/09/10 09:37:22;;;;;;;;;;;;;;;23.96;60.48;99361.53;4415930;32;20009;-88
2022/09/10 09:40:06;;;;;;;;;;;;;;;23.86;60.47;99365.03;4398690;32;20029;-87
2022/09/10 09:42:40;;;;;;;;;;;;;;;23.91;60.47;99366.44;4423185;32;19993;-88
2022/09/10 09:45:18;;;;;;;;;;;;;;;23.89;60.47;99358.56;4408976;32;19990;-88
2022/09/10 09:47:44;;;;;;;;;;;;;;;23.86;60.46;99351.72;4409035;32;20065;-88
2022/09/10 09:50:10;;;;;;;;;;;;;;;24.06;60.49;99346.37;4408994;32;20013;-88
2022/09/10 09:52:37;;;;;;;;;;;;;;;24.28;60.49;99339.84;4409164;32;19974;-87
2022/09/10 09:55:03;;;;;;;;;;;;;;;24.20;60.50;99337.94;4409099;32;19994;-88
2022/09/10 09:57:28;;;;;;;;;;;;;;;24.17;60.49;99343.56;4408850;32;20013;-87
2022/09/10 09:59:54;;;;;;;;;;;;;;;24.12;60.48;99345.78;4408945;32;19981;-88
2022/09/10 10:02:20;;;;;;;;;;;;;;;23.99;60.48;99342.62;4409148;32;20301;-88
2022/09/10 10:05:03;;;;;;;;;;;;;;;24.09;60.48;99333.62;4408988;32;20024;-88
2022/09/10 10:07:32;;;;;;;;;;;;;;;24.28;60.49;99329.22;4408918;32;19981;-88
2022/09/10 10:10:00;;;;;;;;;;;;;;;24.10;60.48;99329.13;4409391;32;20303;-88
2022/09/10 10:12:30;;;;;;;;;;;;;;;24.01;60.48;99327.38;4408622;32;20494;-88
2022/09/10 10:14:55;;;;;;;;;;;;;;;24.14;60.49;99327.91;4422946;32;19987;-88
2022/09/10 10:17:20;;;;;;;;;;;;;;;24.30;60.50;99328.13;4408093;32;24258;-89
2022/09/10 10:19:55;;;;;;;;;;;;;;;24.39;60.50;99327.25;4408642;32;19996;-88
2022/09/10 10:22:20;;;;;;;;;;;;;;;24.21;60.50;99323.66;4406529;32;19974;-88
2022/09/10 10:24:46;;;;;;;;;;;;;;;24.21;60.50;99317.50;4413149;32;19984;-88
2022/09/10 10:27:34;;;;;;;;;;;;;;;24.23;60.49;99315.53;4408053;32;19986;-88
2022/09/10 10:30:11;;;;;;;;;;;;;;;24.03;60.48;99315.59;4415003;32;20008;-88
2022/09/10 10:32:44;;;;;;;;;;;;;;;23.98;60.48;99312.53;4422442;32;20077;-88
2022/09/10 10:35:17;;;;;;;;;;;;;;;24.10;60.48;99314.03;4403638;32;20009;-88
2022/09/10 10:38:03;;;;;;;;;;;;;;;24.28;60.49;99310.59;4416315;32;20388;-88
2022/09/10 10:40:29;;;;;;;;;;;;;;;24.62;60.52;99311.72;4407844;32;20520;-87
2022/09/10 10:43:13;;;;;;;;;;;;;;;24.53;60.51;99306.44;4422435;32;19984;-88
2022/09/10 10:45:42;;;;;;;;;;;;;;;24.78;60.52;99311.88;4408895;32;19982;-89
2022/09/10 10:48:10;;;;;;;;;;;;;;;25.08;60.54;99315.25;4422547;32;20009;-88
2022/09/10 10:50:56;;;;;;;;;;;;;;;25.13;60.54;99306.78;4409404;32;20324;-88
2022/09/10 10:53:42;;;;;;;;;;;;;;;25.29;60.55;99317.56;4423086;32;20352;-88
2022/09/10 10:56:11;;;;;;;;;;;;;;;25.60;60.56;99310.00;4409864;32;20466;-88
2022/09/10 10:58:43;;;;;;;;;;;;;;;25.73;60.57;99309.63;4408357;32;19966;-86
2022/09/10 11:01:17;;;;;;;;;;;;;;;25.61;60.58;99320.50;4409738;32;19972;-89
2022/09/10 11:03:43;;;;;;;;;;;;;;;25.39;60.56;99303.19;4423147;32;19966;-89
2022/09/10 11:06:16;;;;;;;;;;;;;;;25.72;60.57;99310.59;4412092;32;20343;-89
2022/09/10 11:08:44;;;;;;;;;;;;;;;25.79;60.58;99307.19;4410500;32;20037;-89
2022/09/10 11:11:16;;;;;;;;;;;;;;;26.08;60.58;99308.69;4410173;32;20392;-89
2022/09/10 11:13:43;;;;;;;;;;;;;;;26.22;60.60;99319.56;4412011;32;20347;-88
2022/09/10 11:16:13;;;;;;;;;;;;;;;26.18;60.60;99312.88;4401068;32;20449;-88
2022/09/10 11:18:46;;;;;;;;;;;;;;;26.33;60.61;99320.31;4410381;32;20327;-89
2022/09/10 11:21:11;;;;;;;;;;;;;;;26.42;60.61;99314.03;4410345;32;20386;-88
2022/09/10 11:23:38;;;;;;;;;;;;;;;26.10;60.60;99318.19;4424010;32;19990;-88
2022/09/10 11:26:03;;;;;;;;;;;;;;;25.93;60.58;99316.41;4424129;32;20010;-88
2022/09/10 11:28:35;;;;;;;;;;;;;;;25.76;60.57;99314.63;4409890;32;19985;-88
2022/09/10 11:31:02;;;;;;;;;;;;;;;25.72;60.58;99319.44;4410024;32;19990;-88
2022/09/10 11:33:30;;;;;;;;;;;;;;;25.77;60.58;99322.47;4410063;32;20026;-88
2022/09/10 11:36:04;;;;;;;;;;;;;;;25.72;60.58;99310.59;4399937;32;19986;-88
2022/09/10 11:38:35;;;;;;;;;;;;;;;25.90;60.58;99306.06;4413328;32;20444;-89
2022/09/10 11:41:00;;;;;;;;;;;;;;;25.53;60.56;99316.94;4409911;32;20002;-88
2022/09/10 11:43:41;;;;;;;;;;;;;;;25.62;60.58;99310.69;4423933;32;19985;-89
2022/09/10 11:46:17;;;;;;;;;;;;;;;25.61;60.58;99307.19;4409932;32;20319;-87
2022/09/10 11:48:48;;;;;;;;;;;;;;;25.91;60.58;99305.06;4405029;32;19990;-88
2022/09/10 11:51:23;;;;;;;;;;;;;;;25.91;60.58;99302.41;4391778;32;19990;-87
2022/09/10 11:53:48;;;;;;;;;;;;;;;26.15;60.59;99301.69;4410034;32;19981;-87
2022/09/10 11:56:23;;;;;;;;;;;;;;;26.49;60.62;99291.03;4410015;32;20247;-88
2022/09/10 11:59:02;;;;;;;;;;;;;;;26.48;60.62;99298.19;4419717;32;19991;-88
2022/09/10 12:01:37;;;;;;;;;;;;;;;26.61;60.62;99303.09;4404613;32;20060;-88
2022/09/10 12:04:05;;;;;;;;;;;;;;;26.46;60.61;99308.19;4423915;32;20053;-87
2022/09/10 12:06:34;;;;;;;;;;;;;;;26.32;60.62;99303.47;4423699;32;20346;-88
2022/09/10 12:09:02;;;;;;;;;;;;;;;26.39;60.61;99295.66;4409685;32;20040;-88
2022/09/10 12:11:47;;;;;;;;;;;;;;;26.41;60.62;99304.34;4409230;32;20035;-88
2022/09/10 12:14:14;;;;;;;;;;;;;;;26.57;60.62;99301.75;4409788;32;20557;-88
2022/09/10 12:16:43;;;;;;;;;;;;;;;26.69;60.63;99296.94;4409872;32;19982;-88
2022/09/10 12:19:28;;;;;;;;;;;;;;;26.92;60.64;99285.47;4424000;32;20035;-88
2022/09/10 12:21:57;;;;;;;;;;;;;;;27.02;60.64;99288.03;4424411;32;19985;-88
2022/09/10 12:24:24;;;;;;;;;;;;;;;26.83;60.64;99290.97;4410314;32;19974;-88
2022/09/10 12:26:49;;;;;;;;;;;;;;;26.92;60.63;99295.31;4410876;32;20055;-87
2022/09/10 12:29:28;;;;;;;;;;;;;;;27.15;60.65;99288.34;4411285;32;19997;-88
2022/09/10 12:32:12;;;;;;;;;;;;;;;26.93;60.64;99291.63;4412294;32;20007;-87
2022/09/10 12:34:38;;;;;;;;;;;;;;;26.88;60.65;99294.81;4420438;32;19959;-88
2022/09/10 12:37:03;;;;;;;;;;;;;;;26.63;60.64;99301.09;4430056;32;19987;-88
2022/09/10 12:39:28;;;;;;;;;;;;;;;26.56;60.63;99290.22;4410964;32;19994;-88
2022/09/10 12:41:54;;;;;;;;;;;;;;;26.75;60.63;99282.94;4407324;32;20256;-88
2022/09/10 12:44:35;;;;;;;;;;;;;;;26.75;60.64;99285.63;4407326;32;19982;-88
2022/09/10 12:47:12;;;;;;;;;;;;;;;26.71;60.63;99284.25;4402674;32;19984;-88
2022/09/10 12:49:49;;;;;;;;;;;;;;;26.33;60.62;99277.59;4423484;32;20027;-87
2022/09/10 12:52:17;;;;;;;;;;;;;;;26.21;60.61;99287.72;4423610;32;19989;-88
2022/09/10 12:54:51;;;;;;;;;;;;;;;26.47;60.61;99283.19;4409030;32;19997;-88
2022/09/10 12:57:26;;;;;;;;;;;;;;;26.43;60.62;99276.50;4409447;32;19996;-87
2022/09/10 12:59:57;;;;;;;;;;;;;;;26.52;60.62;99278.22;4409474;32;19986;-88